Time;durP1;ratioP1;P1;durP2;ratioP2;P2;SDS_P1;SDS_P2;PMS_P1;PMS_P2;Temp;Humidity;BMP_temperature;BMP_pressure;BME280_temperature;BME280_humidity;BME280_pressure;Samples;Min_cycle;Max_cycle;Signal;HPM_P1;HPM_P2
2024/03/25 00:02:07;;;;;;;2.35;1.25;;;4.30;99.90;;;;;;5005065;28;20033;-38
2024/03/25 00:04:33;;;;;;;2.75;1.13;;;4.30;99.90;;;;;;5002271;28;20038;-42
2024/03/25 00:06:58;;;;;;;1.42;1.27;;;4.30;99.90;;;;;;5005266;28;20117;-35
2024/03/25 00:09:24;;;;;;;2.10;1.60;;;4.30;99.90;;;;;;5006703;28;20037;-37
2024/03/25 00:11:54;;;;;;;1.10;1.10;;;4.30;99.90;;;;;;5000628;28;20134;-41
2024/03/25 00:14:23;;;;;;;1.30;1.30;;;4.30;99.90;;;;;;5004105;28;20049;-41
2024/03/25 00:16:49;;;;;;;1.50;1.20;;;4.40;99.90;;;;;;5001021;28;20030;-43
2024/03/25 00:19:16;;;;;;;0.85;0.85;;;4.30;99.90;;;;;;5001301;28;20037;-41
2024/03/25 00:21:42;;;;;;;1.27;1.17;;;4.40;99.90;;;;;;5001453;28;20034;-39
2024/03/25 00:24:07;;;;;;;1.60;1.35;;;4.40;99.90;;;;;;5000047;28;20037;-41
2024/03/25 00:26:33;;;;;;;0.80;0.80;;;4.40;99.90;;;;;;5002083;28;20101;-40
2024/03/25 00:28:59;;;;;;;1.60;1.50;;;4.40;99.90;;;;;;5004697;28;20116;-39
2024/03/25 00:31:24;;;;;;;1.20;1.20;;;4.40;99.90;;;;;;5003644;28;20034;-39
2024/03/25 00:33:50;;;;;;;2.53;1.70;;;4.40;99.90;;;;;;5036379;28;20044;-40
2024/03/25 00:36:15;;;;;;;1.58;1.48;;;4.40;99.90;;;;;;5000730;28;20026;-42
2024/03/25 00:38:41;;;;;;;2.42;1.08;;;4.40;99.90;;;;;;5001575;28;20049;-39
2024/03/25 00:41:07;;;;;;;1.30;1.27;;;4.30;99.90;;;;;;5005842;28;20502;-41
2024/03/25 00:43:33;;;;;;;1.05;1.00;;;4.30;99.90;;;;;;5004890;28;20037;-41
2024/03/25 00:45:58;;;;;;;1.95;1.45;;;4.30;99.90;;;;;;5004931;28;20029;-40
2024/03/25 00:48:24;;;;;;;3.63;1.63;;;4.30;99.90;;;;;;5001617;28;20034;-36
2024/03/25 00:50:50;;;;;;;1.40;1.08;;;4.30;99.90;;;;;;5002798;28;20124;-42
2024/03/25 00:53:15;;;;;;;1.23;1.05;;;4.30;99.90;;;;;;5000476;28;20042;-42
2024/03/25 00:55:41;;;;;;;0.98;0.98;;;4.30;99.90;;;;;;5005395;28;20040;-37
2024/03/25 00:58:06;;;;;;;1.40;1.30;;;4.30;99.90;;;;;;5005063;28;20063;-34
2024/03/25 01:00:32;;;;;;;1.80;1.70;;;4.30;99.90;;;;;;5001597;28;20476;-34
2024/03/25 01:02:57;;;;;;;1.10;1.10;;;4.40;99.90;;;;;;4983547;28;20088;-33
2024/03/25 01:05:23;;;;;;;0.93;0.93;;;4.30;99.90;;;;;;4979836;28;20037;-37
2024/03/25 01:07:49;;;;;;;2.72;1.30;;;4.30;99.90;;;;;;4981561;28;20552;-32
2024/03/25 01:10:16;;;;;;;1.00;1.00;;;4.30;99.90;;;;;;4982160;28;20041;-34
2024/03/25 01:12:41;;;;;;;1.40;1.08;;;4.30;99.90;;;;;;4981103;28;20068;-33
2024/03/25 01:15:09;;;;;;;1.77;1.27;;;4.40;99.90;;;;;;4983944;28;20129;-35
2024/03/25 01:17:38;;;;;;;1.70;1.38;;;4.30;99.90;;;;;;4980626;28;20030;-39
2024/03/25 01:20:04;;;;;;;2.30;1.75;;;4.40;99.90;;;;;;4982523;28;20057;-37
2024/03/25 01:22:31;;;;;;;0.82;0.82;;;4.30;99.90;;;;;;4981690;28;20684;-40
2024/03/25 01:24:56;;;;;;;1.30;1.20;;;4.30;99.90;;;;;;4977659;28;20034;-38
2024/03/25 01:27:22;;;;;;;1.10;1.10;;;4.30;99.90;;;;;;4983754;28;20165;-36
2024/03/25 01:29:47;;;;;;;1.30;1.20;;;4.30;99.90;;;;;;4981003;28;20061;-38
2024/03/25 01:32:13;;;;;;;0.95;0.95;;;4.30;99.90;;;;;;4980304;28;20030;-41
2024/03/25 01:34:39;;;;;;;3.05;1.40;;;4.30;99.90;;;;;;4983210;28;20567;-42
2024/03/25 01:37:05;;;;;;;2.00;1.48;;;4.30;99.90;;;;;;4980530;28;20057;-42
2024/03/25 01:39:31;;;;;;;2.83;1.95;;;4.30;99.90;;;;;;4983117;28;20034;-40
2024/03/25 01:41:56;;;;;;;2.08;1.08;;;4.30;99.90;;;;;;4980859;28;20125;-38
2024/03/25 01:44:22;;;;;;;1.30;1.20;;;4.30;99.90;;;;;;4983732;28;20088;-41
2024/03/25 01:46:47;;;;;;;1.73;1.33;;;4.30;99.90;;;;;;4983804;28;20031;-41
2024/03/25 01:49:13;;;;;;;1.52;1.42;;;4.30;99.90;;;;;;4983185;28;20034;-41
2024/03/25 01:51:40;;;;;;;1.65;1.08;;;4.30;99.90;;;;;;4983316;28;20491;-39
2024/03/25 01:54:07;;;;;;;1.73;1.48;;;4.20;99.90;;;;;;4982308;28;20033;-39
2024/03/25 01:56:34;;;;;;;1.73;1.60;;;4.20;99.90;;;;;;4979130;28;20082;-38
2024/03/25 01:59:01;;;;;;;2.47;1.67;;;4.30;99.90;;;;;;4982719;28;20538;-36
2024/03/25 02:01:28;;;;;;;1.38;1.15;;;4.20;99.90;;;;;;4985448;28;20062;-39
2024/03/25 02:03:55;;;;;;;1.80;1.20;;;4.30;99.90;;;;;;4980720;28;20023;-39
2024/03/25 02:06:22;;;;;;;6.30;1.65;;;4.30;99.90;;;;;;4984319;28;20026;-39
2024/03/25 02:08:49;;;;;;;1.83;1.05;;;4.20;99.90;;;;;;4984366;28;20093;-40
2024/03/25 02:11:15;;;;;;;1.58;1.20;;;4.20;99.90;;;;;;4985974;28;20058;-37
2024/03/25 02:13:41;;;;;;;1.80;1.40;;;4.20;99.90;;;;;;4982327;28;20404;-43
2024/03/25 02:16:06;;;;;;;0.80;0.80;;;4.20;99.90;;;;;;4984892;28;20424;-43
2024/03/25 02:18:32;;;;;;;2.13;1.30;;;4.20;99.90;;;;;;4983097;28;20034;-39
2024/03/25 02:20:59;;;;;;;1.77;1.67;;;4.10;99.90;;;;;;4983534;28;20481;-38
2024/03/25 02:23:25;;;;;;;1.63;1.17;;;4.10;99.90;;;;;;4985446;28;20472;-39
2024/03/25 02:25:51;;;;;;;1.77;1.67;;;4.20;99.90;;;;;;4984200;28;20490;-42
2024/03/25 02:28:17;;;;;;;1.15;1.15;;;4.10;99.90;;;;;;5017787;28;20034;-41
2024/03/25 02:30:43;;;;;;;2.58;1.65;;;4.10;99.90;;;;;;4985144;28;20061;-41
2024/03/25 02:33:08;;;;;;;1.52;1.23;;;4.10;99.90;;;;;;4985075;28;20026;-41
2024/03/25 02:35:35;;;;;;;1.70;1.30;;;4.10;99.90;;;;;;4982039;28;20475;-39
2024/03/25 02:38:01;;;;;;;1.67;1.58;;;4.10;99.90;;;;;;4980906;28;20049;-42
2024/03/25 02:40:27;;;;;;;3.38;1.58;;;4.00;99.90;;;;;;4982518;28;20488;-42
2024/03/25 02:42:53;;;;;;;3.33;1.40;;;4.00;99.90;;;;;;4980999;28;20027;-40
2024/03/25 02:45:18;;;;;;;3.47;1.67;;;4.00;99.90;;;;;;4984918;28;20034;-41
2024/03/25 02:47:45;;;;;;;1.95;1.67;;;4.00;99.90;;;;;;4985482;28;20713;-39
2024/03/25 02:50:11;;;;;;;1.88;1.73;;;4.00;99.90;;;;;;4985176;28;20022;-40
2024/03/25 02:52:36;;;;;;;2.15;1.80;;;4.00;99.90;;;;;;4982419;28;20033;-38
2024/03/25 02:55:02;;;;;;;2.30;1.90;;;4.00;99.90;;;;;;4985446;28;20538;-38
2024/03/25 02:57:27;;;;;;;0.93;0.93;;;4.00;99.90;;;;;;4984665;28;20487;-40
2024/03/25 02:59:53;;;;;;;1.33;1.20;;;4.00;99.90;;;;;;4982465;28;20030;-41
2024/03/25 03:02:19;;;;;;;1.75;1.50;;;4.00;99.90;;;;;;5000919;28;20101;-41
2024/03/25 03:04:44;;;;;;;1.23;1.23;;;4.00;99.90;;;;;;5002926;28;20029;-40
2024/03/25 03:07:10;;;;;;;2.10;1.40;;;3.90;99.90;;;;;;5004995;28;20088;-40
2024/03/25 03:09:36;;;;;;;2.25;1.60;;;3.90;99.90;;;;;;5003965;28;20033;-41
2024/03/25 03:12:01;;;;;;;1.50;1.23;;;4.00;99.90;;;;;;5004539;28;20054;-40
2024/03/25 03:14:27;;;;;;;3.33;1.48;;;3.90;99.90;;;;;;5002553;28;20072;-39
2024/03/25 03:16:54;;;;;;;1.30;1.20;;;3.90;99.90;;;;;;4999870;28;20599;-41
2024/03/25 03:19:21;;;;;;;6.28;2.88;;;3.90;99.90;;;;;;5002325;28;20040;-36
2024/03/25 03:21:46;;;;;;;1.52;1.17;;;3.80;99.90;;;;;;5007546;28;20030;-35
2024/03/25 03:24:12;;;;;;;1.80;1.70;;;3.80;99.90;;;;;;5004477;28;20023;-33
2024/03/25 03:26:38;;;;;;;1.27;1.17;;;3.90;99.90;;;;;;5002688;28;20488;-35
2024/03/25 03:29:04;;;;;;;2.20;1.95;;;3.80;99.90;;;;;;5005006;28;20045;-34
2024/03/25 03:31:30;;;;;;;2.03;1.85;;;3.90;99.90;;;;;;4996690;28;20038;-34
2024/03/25 03:33:56;;;;;;;4.05;1.77;;;3.80;99.90;;;;;;4984492;28;20033;-34
2024/03/25 03:36:22;;;;;;;1.52;1.42;;;3.80;99.90;;;;;;4984078;28;20121;-34
2024/03/25 03:38:51;;;;;;;2.40;1.63;;;3.80;99.90;;;;;;4984040;28;20198;-34
2024/03/25 03:41:16;;;;;;;1.80;1.65;;;3.80;99.90;;;;;;4982310;28;20030;-37
2024/03/25 03:43:42;;;;;;;1.98;1.50;;;3.70;99.90;;;;;;4985344;28;20030;-32
2024/03/25 03:46:07;;;;;;;1.73;1.60;;;3.80;99.90;;;;;;4983847;28;20045;-34
2024/03/25 03:48:33;;;;;;;1.20;1.10;;;3.80;99.90;;;;;;4985118;28;20045;-34
2024/03/25 03:50:59;;;;;;;2.35;1.75;;;3.70;99.90;;;;;;4983117;28;20119;-38
2024/03/25 03:53:24;;;;;;;3.00;1.77;;;3.70;99.90;;;;;;4982447;28;20070;-33
2024/03/25 03:55:54;;;;;;;1.17;1.13;;;3.70;99.90;;;;;;4985680;28;20026;-36
2024/03/25 03:58:20;;;;;;;1.77;1.65;;;3.60;99.90;;;;;;4983005;28;20085;-36
2024/03/25 04:00:46;;;;;;;1.55;1.40;;;3.60;99.90;;;;;;4975402;28;20026;-42
2024/03/25 04:03:11;;;;;;;2.80;1.75;;;3.60;99.90;;;;;;4985874;28;20027;-40
2024/03/25 04:05:37;;;;;;;2.55;1.65;;;3.50;99.90;;;;;;4982280;28;20105;-41
2024/03/25 04:08:03;;;;;;;1.35;1.27;;;3.50;99.90;;;;;;4979582;28;20118;-39
2024/03/25 04:10:28;;;;;;;1.77;1.45;;;3.50;99.90;;;;;;4984476;28;20108;-39
2024/03/25 04:12:55;;;;;;;2.05;1.67;;;3.40;99.90;;;;;;4982044;28;20041;-38
2024/03/25 04:15:22;;;;;;;4.25;1.55;;;3.40;99.90;;;;;;4980894;28;20497;-38
2024/03/25 04:17:49;;;;;;;1.73;1.63;;;3.30;99.90;;;;;;4985888;28;20034;-40
2024/03/25 04:20:15;;;;;;;1.00;1.00;;;3.40;99.90;;;;;;4982804;28;20034;-42
2024/03/25 04:22:45;;;;;;;1.58;1.48;;;3.30;99.90;;;;;;4983282;28;20034;-42
2024/03/25 04:25:11;;;;;;;3.75;2.05;;;3.30;99.90;;;;;;4979511;28;20022;-40
2024/03/25 04:27:43;;;;;;;1.58;1.45;;;3.30;99.90;;;;;;4981829;28;20026;-40
2024/03/25 04:30:11;;;;;;;2.10;1.80;;;3.30;99.90;;;;;;4985595;28;20113;-40
2024/03/25 04:32:37;;;;;;;2.08;1.98;;;3.30;99.90;;;;;;4981479;28;20038;-37
2024/03/25 04:35:04;;;;;;;2.45;2.20;;;3.30;99.90;;;;;;4983638;28;20496;-39
2024/03/25 04:37:29;;;;;;;2.45;1.83;;;3.30;99.90;;;;;;4984190;28;20158;-39
2024/03/25 04:39:56;;;;;;;1.67;1.58;;;3.30;99.90;;;;;;4983608;28;20543;-41
2024/03/25 04:42:22;;;;;;;2.67;2.00;;;3.30;99.90;;;;;;4981036;28;20550;-40
2024/03/25 04:44:48;;;;;;;3.80;2.28;;;3.20;99.90;;;;;;4981740;28;20097;-40
2024/03/25 04:47:17;;;;;;;2.63;1.90;;;3.30;99.90;;;;;;4985426;28;20037;-39
2024/03/25 04:49:42;;;;;;;;;;;3.20;99.90;;;;;;4983278;28;20034;-41
2024/03/25 04:52:08;;;;;;;2.30;1.77;;;3.20;99.90;;;;;;4983598;28;19913;-40
2024/03/25 04:54:34;;;;;;;1.40;1.30;;;3.10;99.90;;;;;;4981503;28;20034;-41
2024/03/25 04:56:59;;;;;;;0.82;0.82;;;3.10;99.90;;;;;;4982333;28;20483;-40
2024/03/25 04:59:25;;;;;;;1.77;1.67;;;3.00;99.90;;;;;;4981812;28;20499;-40
2024/03/25 05:01:51;;;;;;;1.80;1.50;;;2.90;99.90;;;;;;4983786;28;20496;-40
2024/03/25 05:04:18;;;;;;;1.67;1.58;;;2.90;99.90;;;;;;4982411;28;20038;-41
2024/03/25 05:06:44;;;;;;;2.13;2.00;;;2.90;99.90;;;;;;4982054;28;20031;-40
2024/03/25 05:09:10;;;;;;;2.70;1.73;;;2.90;99.90;;;;;;4982124;28;20031;-40
2024/03/25 05:11:35;;;;;;;2.63;1.80;;;2.80;99.90;;;;;;4981143;28;20546;-41
2024/03/25 05:14:01;;;;;;;4.90;2.53;;;2.80;99.90;;;;;;4972961;28;20034;-40
2024/03/25 05:16:27;;;;;;;1.10;1.10;;;2.80;99.90;;;;;;4979061;28;20054;-42
2024/03/25 05:18:52;;;;;;;1.55;1.13;;;2.80;99.90;;;;;;4979968;28;20038;-39
2024/03/25 05:21:18;;;;;;;2.70;1.92;;;2.80;99.90;;;;;;4980507;28;20034;-42
2024/03/25 05:23:43;;;;;;;2.22;2.03;;;2.80;99.90;;;;;;4980374;28;20424;-40
2024/03/25 05:26:09;;;;;;;2.13;1.92;;;2.80;99.90;;;;;;4983845;28;20042;-41
2024/03/25 05:28:35;;;;;;;3.40;2.45;;;2.80;99.90;;;;;;4983616;28;20019;-41
2024/03/25 05:31:10;;;;;;;1.88;1.75;;;2.80;99.90;;;;;;4985822;28;20065;-39
2024/03/25 05:33:36;;;;;;;4.53;2.30;;;2.80;99.90;;;;;;5002719;28;20057;-43
2024/03/25 05:36:02;;;;;;;2.40;2.15;;;2.70;99.90;;;;;;4999004;28;20037;-39
2024/03/25 05:38:28;;;;;;;1.70;1.60;;;2.70;99.90;;;;;;5007045;28;20057;-34
2024/03/25 05:40:54;;;;;;;2.00;1.75;;;2.70;99.90;;;;;;5006200;28;20049;-33
2024/03/25 05:43:20;;;;;;;2.63;2.08;;;2.70;99.90;;;;;;5004734;28;20054;-35
2024/03/25 05:45:53;;;;;;;4.13;2.17;;;2.70;99.90;;;;;;5009730;28;20040;-35
2024/03/25 05:48:19;;;;;;;2.45;1.75;;;2.70;99.90;;;;;;5006189;28;20041;-34
2024/03/25 05:50:45;;;;;;;3.40;2.40;;;2.70;99.90;;;;;;5005295;28;20030;-36
2024/03/25 05:53:10;;;;;;;3.72;2.47;;;2.70;99.90;;;;;;5006632;28;20456;-33
2024/03/25 05:55:36;;;;;;;1.80;1.58;;;2.70;99.90;;;;;;5004865;28;20692;-35
2024/03/25 05:58:02;;;;;;;4.30;2.10;;;2.70;99.90;;;;;;5005434;28;20440;-35
2024/03/25 06:00:30;;;;;;;2.50;2.10;;;2.80;99.90;;;;;;5003899;28;20040;-33
2024/03/25 06:02:56;;;;;;;1.70;1.00;;;2.80;99.90;;;;;;4988171;28;20135;-34
2024/03/25 06:05:21;;;;;;;2.05;1.95;;;2.80;99.90;;;;;;4985290;28;20038;-34
2024/03/25 06:07:47;;;;;;;4.13;2.53;;;2.90;99.90;;;;;;4987272;28;20034;-35
2024/03/25 06:10:13;;;;;;;1.63;1.52;;;2.90;99.90;;;;;;4988012;28;20396;-37
2024/03/25 06:12:38;;;;;;;1.58;1.48;;;3.00;99.90;;;;;;4987458;28;20026;-39
2024/03/25 06:15:05;;;;;;;4.55;2.05;;;3.00;99.90;;;;;;4986827;28;20030;-35
2024/03/25 06:17:30;;;;;;;1.15;1.10;;;3.10;99.90;;;;;;4988031;28;20028;-33
2024/03/25 06:19:56;;;;;;;1.63;1.52;;;3.20;99.90;;;;;;4988424;28;20038;-35
2024/03/25 06:22:21;;;;;;;2.03;1.73;;;3.20;99.90;;;;;;4984336;28;20033;-35
2024/03/25 06:24:49;;;;;;;3.08;2.35;;;3.30;99.90;;;;;;4985487;28;20023;-33
2024/03/25 06:27:15;;;;;;;1.65;1.55;;;3.40;99.90;;;;;;4984865;28;20548;-34
2024/03/25 06:29:41;;;;;;;4.90;1.52;;;3.50;99.90;;;;;;4983625;28;20034;-33
2024/03/25 06:34:51;;;;;;;6.30;1.70;;;3.70;99.90;;;;;;5004657;28;20073;-32
2024/03/25 06:37:16;;;;;;;2.30;2.10;;;3.80;99.90;;;;;;5004618;28;20073;-35
2024/03/25 06:39:42;;;;;;;6.40;2.40;;;3.80;99.90;;;;;;5004360;28;20091;-33
2024/03/25 06:42:07;;;;;;;1.52;1.42;;;3.80;99.90;;;;;;5002405;28;20030;-36
2024/03/25 06:44:33;;;;;;;1.92;1.55;;;3.90;99.90;;;;;;5003654;28;20069;-33
2024/03/25 06:46:58;;;;;;;1.20;1.15;;;3.90;99.90;;;;;;5004269;28;20040;-35
2024/03/25 06:49:24;;;;;;;1.23;1.13;;;3.90;99.90;;;;;;4998775;28;20045;-33
2024/03/25 06:51:50;;;;;;;3.63;2.50;;;3.90;99.90;;;;;;5004365;28;20033;-33
2024/03/25 06:54:15;;;;;;;1.00;1.00;;;3.90;99.90;;;;;;5000798;28;20030;-34
2024/03/25 06:56:41;;;;;;;4.75;2.10;;;4.00;99.90;;;;;;4997559;28;20033;-34
2024/03/25 06:59:07;;;;;;;1.75;1.65;;;4.10;99.90;;;;;;5013075;28;20578;-36
2024/03/25 07:01:33;;;;;;;1.88;1.02;;;4.10;99.90;;;;;;4998523;28;20042;-34
2024/03/25 07:03:59;;;;;;;1.92;1.60;;;4.20;99.90;;;;;;4996589;28;20030;-33
2024/03/25 07:06:25;;;;;;;2.53;2.00;;;4.30;99.90;;;;;;5000347;28;20026;-34
2024/03/25 07:08:51;;;;;;;1.20;1.10;;;4.20;99.90;;;;;;5001903;28;20100;-33
2024/03/25 07:11:17;;;;;;;2.03;1.92;;;4.20;99.90;;;;;;4998799;28;20030;-35
2024/03/25 07:13:43;;;;;;;2.03;1.48;;;4.30;99.90;;;;;;5000933;28;20116;-39
2024/03/25 07:16:08;;;;;;;2.78;1.60;;;4.30;99.90;;;;;;5002396;28;20116;-33
2024/03/25 07:18:34;;;;;;;1.95;1.42;;;4.20;99.90;;;;;;5001228;28;20030;-35
2024/03/25 07:20:59;;;;;;;1.63;1.50;;;4.30;99.90;;;;;;5002360;28;20479;-33
2024/03/25 07:23:25;;;;;;;6.20;1.85;;;4.30;99.90;;;;;;5000602;28;20022;-33
2024/03/25 07:25:51;;;;;;;1.73;1.42;;;4.50;99.90;;;;;;5002707;28;20104;-34
2024/03/25 07:28:16;;;;;;;2.70;1.83;;;4.50;99.90;;;;;;4996468;28;20564;-40
2024/03/25 07:30:42;;;;;;;2.13;1.90;;;4.70;99.90;;;;;;4999608;28;20030;-41
2024/03/25 07:33:08;;;;;;;3.45;1.38;;;4.90;99.90;;;;;;4981398;28;20609;-40
2024/03/25 07:35:33;;;;;;;1.67;1.58;;;4.90;99.90;;;;;;4980604;28;20555;-41
2024/03/25 07:37:59;;;;;;;3.67;2.00;;;4.90;99.90;;;;;;4993336;28;20073;-35
2024/03/25 07:40:24;;;;;;;2.00;1.23;;;4.90;99.90;;;;;;4982949;28;20066;-36
2024/03/25 07:42:50;;;;;;;3.58;2.30;;;5.00;99.90;;;;;;4982418;28;20022;-35
2024/03/25 07:45:16;;;;;;;3.75;2.75;;;4.90;99.90;;;;;;4980083;28;20527;-32
2024/03/25 07:47:42;;;;;;;4.35;2.67;;;4.80;99.90;;;;;;4981451;28;20030;-35
2024/03/25 07:50:08;;;;;;;2.90;1.63;;;4.90;99.90;;;;;;4977665;28;20066;-33
2024/03/25 07:52:36;;;;;;;2.42;1.80;;;5.10;99.90;;;;;;4984534;28;20101;-33
2024/03/25 07:55:01;;;;;;;4.20;1.95;;;5.30;99.90;;;;;;4984037;28;20030;-33
2024/03/25 07:57:27;;;;;;;2.45;2.25;;;5.50;99.90;;;;;;4981961;28;20042;-39
2024/03/25 07:59:53;;;;;;;2.33;1.73;;;5.60;99.90;;;;;;4981031;28;20034;-42
2024/03/25 08:02:19;;;;;;;2.92;2.63;;;5.70;99.90;;;;;;4980695;28;20050;-43
2024/03/25 08:04:44;;;;;;;1.40;1.30;;;5.80;99.90;;;;;;4985313;28;20109;-41
2024/03/25 08:07:10;;;;;;;3.42;1.70;;;5.80;99.90;;;;;;4983603;28;20038;-40
2024/03/25 08:09:35;;;;;;;2.33;1.98;;;5.70;99.90;;;;;;4984241;28;20034;-41
2024/03/25 08:12:01;;;;;;;3.30;2.13;;;5.90;99.90;;;;;;4984423;28;20407;-39
2024/03/25 08:14:27;;;;;;;2.80;1.77;;;6.00;99.90;;;;;;4983460;28;20042;-40
2024/03/25 08:16:52;;;;;;;2.65;1.40;;;6.00;99.90;;;;;;4982426;28;20023;-41
2024/03/25 08:19:18;;;;;;;1.20;1.20;;;6.00;99.90;;;;;;4982352;28;20046;-39
2024/03/25 08:21:43;;;;;;;3.20;2.05;;;6.10;99.90;;;;;;4985277;28;20037;-37
2024/03/25 08:24:09;;;;;;;5.05;1.73;;;6.30;99.90;;;;;;4980999;28;20027;-42
2024/03/25 08:26:35;;;;;;;1.73;1.52;;;6.40;99.90;;;;;;4984403;28;20057;-38
2024/03/25 08:29:00;;;;;;;3.42;2.50;;;6.50;99.90;;;;;;5011249;28;20033;-41
2024/03/25 08:31:26;;;;;;;1.55;1.45;;;6.70;99.90;;;;;;4992094;28;20464;-41
2024/03/25 08:33:52;;;;;;;5.22;1.83;;;6.80;99.90;;;;;;5005243;28;20037;-40
2024/03/25 08:36:20;;;;;;;1.77;1.67;;;6.60;99.90;;;;;;5004957;28;20084;-39
2024/03/25 08:38:46;;;;;;;;;;;6.60;99.90;;;;;;5000311;28;20046;-39
2024/03/25 08:41:12;;;;;;;2.28;1.77;;;6.80;99.90;;;;;;5002403;28;20306;-41
2024/03/25 08:43:37;;;;;;;3.72;2.05;;;7.00;99.90;;;;;;5001732;28;20107;-34
2024/03/25 08:46:04;;;;;;;1.98;1.75;;;6.90;99.90;;;;;;5003298;28;20554;-42
2024/03/25 08:48:30;;;;;;;5.13;2.03;;;7.00;99.90;;;;;;4999680;28;20038;-35
2024/03/25 08:50:56;;;;;;;2.75;1.83;;;7.00;99.90;;;;;;5000110;28;20045;-33
2024/03/25 08:53:21;;;;;;;2.22;1.50;;;7.10;99.90;;;;;;5006283;28;20033;-34
2024/03/25 08:55:48;;;;;;;3.08;2.20;;;6.90;99.90;;;;;;5005753;28;20032;-32
2024/03/25 08:58:14;;;;;;;1.70;1.60;;;7.20;99.90;;;;;;5004438;28;20025;-38
2024/03/25 09:00:40;;;;;;;2.47;2.03;;;7.00;99.90;;;;;;5002937;28;20033;-33
2024/03/25 09:03:06;;;;;;;1.40;1.20;;;6.80;99.90;;;;;;5000777;28;20026;-33
2024/03/25 09:05:31;;;;;;;3.53;2.35;;;6.80;99.90;;;;;;5032661;28;20557;-34
2024/03/25 09:07:58;;;;;;;2.47;2.00;;;7.10;99.90;;;;;;5003777;28;20026;-33
2024/03/25 09:13:09;;;;;;;2.85;1.30;;;7.00;99.90;;;;;;5005713;28;20056;-32
2024/03/25 09:15:34;;;;;;;2.47;2.10;;;7.00;99.90;;;;;;5005971;28;20030;-34
2024/03/25 09:18:00;;;;;;;3.08;1.42;;;7.00;99.90;;;;;;5008098;28;20034;-33
2024/03/25 09:20:26;;;;;;;5.03;1.80;;;7.30;99.90;;;;;;5008456;28;20026;-38
2024/03/25 09:22:52;;;;;;;2.65;2.15;;;7.60;99.90;;;;;;5006313;28;20555;-34
2024/03/25 09:25:18;;;;;;;4.75;1.90;;;7.60;99.90;;;;;;5005156;28;20037;-33
2024/03/25 09:27:48;;;;;;;6.22;2.03;;;7.60;99.90;;;;;;5011802;28;20083;-35
2024/03/25 09:30:14;;;;;;;5.13;1.90;;;7.70;99.90;;;;;;5007172;28;20502;-32
2024/03/25 09:32:43;;;;;;;4.85;2.15;;;7.80;99.90;;;;;;4987634;28;20121;-32
2024/03/25 09:35:09;;;;;;;2.10;1.60;;;8.20;99.90;;;;;;4984079;28;20030;-38
2024/03/25 09:37:35;;;;;;;6.63;1.58;;;8.20;95.00;;;;;;4989209;28;20065;-34
2024/03/25 09:40:02;;;;;;;2.60;1.60;;;8.10;99.90;;;;;;4985082;28;20043;-33
2024/03/25 09:42:33;;;;;;;3.17;1.88;;;8.20;98.50;;;;;;4990175;28;20070;-35
2024/03/25 09:44:59;;;;;;;4.15;1.63;;;8.20;90.30;;;;;;4987867;28;20034;-36
2024/03/25 09:47:25;;;;;;;2.45;2.17;;;8.10;92.50;;;;;;4987773;28;20507;-32
2024/03/25 09:49:54;;;;;;;2.63;1.60;;;8.30;91.70;;;;;;4985287;28;20726;-32
2024/03/25 09:52:20;;;;;;;2.20;1.80;;;8.60;93.60;;;;;;4985678;28;20041;-33
2024/03/25 09:54:46;;;;;;;1.58;1.00;;;8.90;91.00;;;;;;4985872;28;20109;-35
2024/03/25 09:57:12;;;;;;;1.80;1.20;;;8.80;77.30;;;;;;4983600;28;20062;-41
2024/03/25 09:59:39;;;;;;;1.50;1.40;;;8.20;65.30;;;;;;4989135;28;20035;-42
2024/03/25 10:02:06;;;;;;;1.80;1.70;;;8.00;68.40;;;;;;4984060;28;20382;-42
2024/03/25 10:04:32;;;;;;;0.88;0.88;;;8.20;90.00;;;;;;4983173;28;20037;-40
2024/03/25 10:06:59;;;;;;;2.35;1.70;;;8.50;80.50;;;;;;4990393;28;20523;-40
2024/03/25 10:09:25;;;;;;;2.33;1.50;;;8.50;78.20;;;;;;4984683;28;20435;-41
2024/03/25 10:11:51;;;;;;;1.50;1.40;;;8.50;71.30;;;;;;4998475;28;20026;-42
2024/03/25 10:14:18;;;;;;;1.05;1.00;;;8.30;65.60;;;;;;4983665;28;20034;-39
2024/03/25 10:16:44;;;;;;;2.63;1.40;;;8.10;75.40;;;;;;4994032;28;20093;-41
2024/03/25 10:19:10;;;;;;;2.65;1.73;;;8.20;80.60;;;;;;4984550;28;20070;-38
2024/03/25 10:21:36;;;;;;;2.05;1.45;;;7.90;70.60;;;;;;4986559;28;20034;-41
2024/03/25 10:24:04;;;;;;;2.38;1.70;;;7.80;75.70;;;;;;4983488;28;20055;-42
2024/03/25 10:26:31;;;;;;;2.10;1.65;;;8.10;74.50;;;;;;4986999;28;20048;-40
2024/03/25 10:29:06;;;;;;;2.80;1.58;;;8.40;76.80;;;;;;4985219;28;20602;-33
2024/03/25 10:31:32;;;;;;;2.63;1.88;;;8.40;72.10;;;;;;4984189;28;20441;-32
2024/03/25 10:33:58;;;;;;;1.50;1.40;;;8.80;76.30;;;;;;4987841;28;20411;-35
2024/03/25 10:36:24;;;;;;;2.72;1.48;;;9.20;71.10;;;;;;4984481;28;20026;-38
2024/03/25 10:38:54;;;;;;;1.60;1.35;;;9.50;66.20;;;;;;4985368;28;20127;-35
2024/03/25 10:41:22;;;;;;;1.25;1.15;;;9.50;68.30;;;;;;4984945;28;20690;-34
2024/03/25 10:43:49;;;;;;;1.93;1.53;;;9.20;57.40;;;;;;4989979;28;20029;-33
2024/03/25 10:46:25;;;;;;;2.50;1.35;;;9.30;62.90;;;;;;4980032;28;20098;-35
2024/03/25 10:49:23;;;;;;;1.55;1.10;;;9.50;64.90;;;;;;4984768;28;20031;-38
2024/03/25 10:51:50;;;;;;;1.13;1.13;;;9.50;53.30;;;;;;4986021;28;20104;-34
2024/03/25 10:54:17;;;;;;;1.50;1.40;;;8.90;52.70;;;;;;4982821;28;20027;-35
2024/03/25 10:56:43;;;;;;;1.20;1.10;;;9.30;57.10;;;;;;4988517;28;20023;-31
2024/03/25 10:59:12;;;;;;;1.08;1.00;;;9.80;60.80;;;;;;4982831;28;20034;-36
2024/03/25 11:01:37;;;;;;;;;;;9.60;52.40;;;;;;4996525;28;20042;-35
2024/03/25 11:04:05;;;;;;;3.88;1.50;;;9.70;58.10;;;;;;5009801;28;19916;-34
2024/03/25 11:06:31;;;;;;;1.48;1.20;;;10.00;56.40;;;;;;5005254;28;20049;-33
2024/03/25 11:08:58;;;;;;;1.33;1.23;;;10.10;57.10;;;;;;5003068;28;20091;-37
2024/03/25 11:11:31;;;;;;;1.33;1.05;;;10.30;58.70;;;;;;5009161;28;20037;-33
2024/03/25 11:13:57;;;;;;;1.23;1.10;;;10.00;51.80;;;;;;5001514;28;20037;-34
2024/03/25 11:16:33;;;;;;;2.72;1.13;;;10.00;51.60;;;;;;5003179;28;20044;-38
2024/03/25 11:19:03;;;;;;;0.75;0.75;;;9.70;53.10;;;;;;5002601;28;20079;-33
2024/03/25 11:21:28;;;;;;;1.08;0.45;;;9.80;52.20;;;;;;5006253;28;20026;-35
2024/03/25 11:23:54;;;;;;;1.30;1.20;;;9.70;50.20;;;;;;5009167;28;20645;-34
2024/03/25 11:26:30;;;;;;;1.38;1.27;;;9.50;51.60;;;;;;5005215;28;20422;-34
2024/03/25 11:28:56;;;;;;;2.00;1.38;;;9.60;51.00;;;;;;5008969;28;20441;-37
2024/03/25 11:31:25;;;;;;;1.15;1.15;;;9.70;51.70;;;;;;5003469;28;20022;-36
2024/03/25 11:33:52;;;;;;;1.30;1.20;;;9.90;52.80;;;;;;5003683;28;20602;-32
2024/03/25 11:36:24;;;;;;;1.92;1.17;;;10.00;52.80;;;;;;5008403;28;20048;-34
2024/03/25 11:39:04;;;;;;;2.15;1.08;;;10.20;51.80;;;;;;5008753;28;20038;-39
2024/03/25 11:41:33;;;;;;;0.68;0.68;;;10.20;50.10;;;;;;5004462;28;20032;-39
2024/03/25 11:43:59;;;;;;;1.02;1.00;;;9.70;49.80;;;;;;5005225;28;20503;-41
2024/03/25 11:46:26;;;;;;;1.23;1.02;;;9.60;55.90;;;;;;5005073;28;20026;-40
2024/03/25 11:48:55;;;;;;;1.05;0.98;;;9.50;55.20;;;;;;5005659;28;20501;-37
2024/03/25 11:51:20;;;;;;;1.10;1.10;;;9.50;52.20;;;;;;4997930;28;20061;-39
2024/03/25 11:53:46;;;;;;;0.88;0.88;;;9.60;51.30;;;;;;5000000;28;20077;-38
2024/03/25 11:56:12;;;;;;;0.73;0.73;;;9.30;49.50;;;;;;5004922;28;20121;-38
2024/03/25 11:58:38;;;;;;;2.72;1.40;;;9.40;48.00;;;;;;5000986;28;20622;-40
2024/03/25 12:01:04;;;;;;;1.50;1.40;;;9.70;53.20;;;;;;5004320;28;20357;-41
2024/03/25 12:03:30;;;;;;;1.13;1.02;;;9.70;51.80;;;;;;5004159;28;20026;-38
2024/03/25 12:05:56;;;;;;;0.73;0.73;;;9.90;52.70;;;;;;5004373;28;20022;-37
2024/03/25 12:08:25;;;;;;;0.63;0.63;;;10.00;48.70;;;;;;5005030;28;20499;-40
2024/03/25 12:13:40;;;;;;;1.38;1.08;;;9.50;47.90;;;;;;5003423;28;20507;-43
2024/03/25 12:16:07;;;;;;;0.98;0.82;;;9.70;48.80;;;;;;5003005;28;20037;-41
2024/03/25 12:18:34;;;;;;;0.80;0.80;;;9.90;52.20;;;;;;4999572;28;20069;-37
2024/03/25 12:21:00;;;;;;;1.75;1.20;;;10.10;47.50;;;;;;5001974;28;20027;-38
2024/03/25 12:23:32;;;;;;;0.98;0.98;;;10.20;47.60;;;;;;5000424;28;20045;-40
2024/03/25 12:26:02;;;;;;;2.10;1.33;;;10.00;50.00;;;;;;5004138;28;20612;-41
2024/03/25 12:28:28;;;;;;;1.83;0.93;;;10.00;50.10;;;;;;5001912;28;20034;-40
2024/03/25 12:30:55;;;;;;;1.73;1.20;;;10.10;50.80;;;;;;5004899;28;20180;-39
2024/03/25 12:33:22;;;;;;;1.40;1.30;;;10.10;52.60;;;;;;5004007;28;20670;-40
2024/03/25 12:35:51;;;;;;;1.30;1.00;;;10.00;47.50;;;;;;5000620;28;20476;-38
2024/03/25 12:38:23;;;;;;;0.80;0.77;;;10.10;49.40;;;;;;5002694;28;20046;-42
2024/03/25 12:40:49;;;;;;;1.15;1.05;;;10.20;50.90;;;;;;5016590;28;20034;-42
2024/03/25 12:43:16;;;;;;;2.40;1.23;;;10.40;51.20;;;;;;5001304;28;20504;-43
2024/03/25 12:45:42;;;;;;;2.17;1.10;;;10.40;53.30;;;;;;5000684;28;20030;-39
2024/03/25 12:48:08;;;;;;;1.30;1.20;;;10.50;52.00;;;;;;5001414;28;20406;-40
2024/03/25 12:50:34;;;;;;;1.33;1.23;;;10.40;52.30;;;;;;5003458;28;20030;-42
2024/03/25 12:53:00;;;;;;;1.50;1.20;;;10.70;54.00;;;;;;5001362;28;20126;-40
2024/03/25 12:55:25;;;;;;;1.70;1.20;;;10.80;53.50;;;;;;5003270;28;20030;-37
2024/03/25 12:57:51;;;;;;;1.30;1.20;;;10.70;47.80;;;;;;5004981;28;20033;-41
2024/03/25 13:00:17;;;;;;;1.27;1.17;;;10.70;52.30;;;;;;5001880;28;20034;-40
2024/03/25 13:02:42;;;;;;;1.45;1.20;;;10.60;54.70;;;;;;5003092;28;20034;-41